Barbarossa — ZDFA4 — position and weather

sailwx.info

Track history (hours):
 
Tides and Currents Weather Stations Pressure Air Temp Water Temp Dewpoint Dewpoint Depression Visibility Wind Speed Wind Dir Waves Ship Positions

Barbarossa

Last reported at 2018-Feb-22 04:39 UTC. Time now 2018-Feb-22 19:20 UTC.
Position N 60°27' E 019°02'.

Length 83 m; draft 3.9 m.

Type: Cargo ship. MMSI: 236029000.

Date/timePositionNaut miles runAvg speedWind from/ knotsBaromVisibWave heightAir tempDewpointWater temp
2018-Feb-22 04:39N 60°27' E 019°02'211.0
2018-Feb-22 04:29N 60°25' E 019°02'511.1
2018-Feb-22 04:01N 60°20' E 019°01'510.8
2018-Feb-22 03:31N 60°15' E 019°03'510.7
2018-Feb-22 03:01N 60°10' E 019°08'510.8
2018-Feb-22 02:30N 60°06' E 019°15'510.9
2018-Feb-22 02:00N 60°02' E 019°22'510.9
2018-Feb-22 01:30N 59°57' E 019°29'510.8
2018-Feb-22 01:00N 59°53' E 019°36'610.7
2018-Feb-22 00:29N 59°49' E 019°43'4410.6
2018-Feb-21 20:20N 59°35' E 021°06'410.9
2018-Feb-21 20:00N 59°34' E 021°13'511.0
2018-Feb-21 19:30N 59°34' E 021°24'611.1
2018-Feb-21 19:01N 59°33' E 021°35'611.0
2018-Feb-21 18:31N 59°33' E 021°45'4410.9
2018-Feb-21 14:28N 59°38' E 023°12'510.5
2018-Feb-21 14:00N 59°39' E 023°21'510.7
2018-Feb-21 13:30N 59°40' E 023°32'510.4
2018-Feb-21 13:00N 59°42' E 023°41'510.3
2018-Feb-21 12:30N 59°43' E 023°51'5 9.9
2018-Feb-21 12:00N 59°44' E 024°01'9 9.5
2018-Feb-21 11:04N 59°47' E 024°18'110.0
2018-Feb-21 11:00N 59°47' E 024°19'4 7.2
2018-Feb-21 10:30N 59°47' E 024°26'5 9.3
2018-Feb-21 10:00N 59°49' E 024°35'5 9.9
2018-Feb-21 09:30N 59°50' E 024°45'4 8.6
2018-Feb-21 09:01N 59°51' E 024°53'610.5
2018-Feb-21 08:28N 59°52' E 025°04'510.0
2018-Feb-21 07:58N 59°53' E 025°14'510.0
2018-Feb-21 07:30N 59°54' E 025°23'510.1
2018-Feb-21 07:00N 59°54' E 025°33'23 9.4
2018-Feb-21 04:34N 60°06' E 026°12'110.5
2018-Feb-21 04:30N 60°07' E 026°13'510.4
2018-Feb-21 04:00N 60°10' E 026°20'4 8.6
2018-Feb-21 03:30N 60°14' E 026°25'4 8.3
2018-Feb-21 03:00N 60°17' E 026°31'510.4
2018-Feb-21 02:31N 60°21' E 026°38'3 5.1
2018-Feb-21 02:00N 60°22' E 026°42'3 5.5
2018-Feb-21 01:31N 60°23' E 026°48'4 7.7
2018-Feb-21 01:00N 60°22' E 026°55'4 8.2
2018-Feb-21 00:30N 60°21' E 027°03'3 6.0
2018-Feb-21 00:00N 60°22' E 027°09'3 7.0
2018-Feb-20 23:31N 60°26' E 027°08'3 6.7
2018-Feb-20 23:00N 60°29' E 027°08'3 6.8
2018-Feb-20 22:30N 60°32' E 027°11'0 0.0
2018-Feb-19 13:57N 60°32' E 027°10'2 4.4
2018-Feb-19 13:29N 60°30' E 027°09'3 7.3
2018-Feb-19 13:00N 60°27' E 027°09'4 7.4
2018-Feb-19 12:30N 60°23' E 027°09'3 6.5
2018-Feb-19 12:00N 60°21' E 027°05'4 8.8
2018-Feb-19 11:30N 60°22' E 026°56'4 7.7
2018-Feb-19 11:00N 60°22' E 026°49'4 7.2
2018-Feb-19 10:30N 60°22' E 026°42'4 8.2
2018-Feb-19 10:00N 60°19' E 026°36'5 9.7
2018-Feb-19 09:30N 60°16' E 026°28'5 9.3
2018-Feb-19 09:00N 60°12' E 026°23'5 9.4
2018-Feb-19 08:31N 60°08' E 026°18'23 9.2
2018-Feb-19 05:59N 59°52' E 025°43'7 9.2
2018-Feb-19 05:11N 59°51' E 025°29'2 9.4
2018-Feb-19 04:58N 59°51' E 025°25'7 9.5
2018-Feb-19 04:13N 59°49' E 025°11'3 9.2
2018-Feb-19 03:55N 59°49' E 025°06'4 9.4
2018-Feb-19 03:30N 59°48' E 024°58'5 9.3
2018-Feb-19 03:00N 59°47' E 024°49'5 9.3
2018-Feb-19 02:30N 59°46' E 024°40'5 9.6
2018-Feb-19 02:00N 59°45' E 024°31'5 9.6
2018-Feb-19 01:30N 59°44' E 024°21'6 9.3
2018-Feb-19 00:49N 59°42' E 024°09'4 9.3
2018-Feb-19 00:26N 59°41' E 024°02'4 9.0
2018-Feb-19 00:00N 59°40' E 023°55'5 9.5
2018-Feb-18 23:30N 59°38' E 023°46'5 9.7
2018-Feb-18 23:00N 59°37' E 023°37'5 9.6
2018-Feb-18 22:30N 59°35' E 023°28'5 9.7
2018-Feb-18 22:00N 59°34' E 023°19'6 9.5
2018-Feb-18 21:25N 59°32' E 023°09'303 9.8
2018-Feb-17 14:36N 54°51' E 019°40'210.3
2018-Feb-17 14:25N 54°49' E 019°41'410.4
2018-Feb-17 14:00N 54°45' E 019°43'  
2018-Feb-14 19:23N 54°47' E 019°25'411.1
2018-Feb-14 18:59N 54°49' E 019°18'511.2
2018-Feb-14 18:30N 54°51' E 019°09'611.1
2018-Feb-14 18:00N 54°53' E 019°00'611.3
2018-Feb-14 17:30N 54°55' E 018°51'611.2
2018-Feb-14 17:00N 54°58' E 018°42'611.3
2018-Feb-14 16:30N 54°60' E 018°33'611.2
2018-Feb-14 15:59N 55°02' E 018°23'711.1
2018-Feb-14 15:21N 55°03' E 018°12'9411.1
2018-Feb-14 06:52N 55°22' E 015°30'411.0
2018-Feb-14 06:30N 55°22' E 015°23'511.1
2018-Feb-14 06:00N 55°23' E 015°14'511.0
2018-Feb-14 05:30N 55°24' E 015°04'611.1
2018-Feb-14 05:00N 55°23' E 014°54'611.0
2018-Feb-14 04:30N 55°23' E 014°45'510.2
2018-Feb-14 04:00N 55°20' E 014°37'511.1
2018-Feb-14 03:30N 55°17' E 014°30'611.1
2018-Feb-14 03:00N 55°12' E 014°24'510.2
2018-Feb-14 02:29N 55°09' E 014°16'1511.4
2018-Feb-14 01:08N 55°11' E 013°49'1711.2
2018-Feb-13 23:40N 55°13' E 013°20'311.0
2018-Feb-13 23:26N 55°13' E 013°16'511.1
2018-Feb-13 23:00N 55°14' E 013°08'611.2
2018-Feb-13 22:30N 55°14' E 012°58'611.2
2018-Feb-13 22:00N 55°16' E 012°48'611.2
2018-Feb-13 21:30N 55°18' E 012°39'510.5
2018-Feb-13 21:00N 55°23' E 012°40'511.0
2018-Feb-13 20:30N 55°28' E 012°41'611.1
2018-Feb-13 20:00N 55°34' E 012°42'611.1
2018-Feb-13 19:30N 55°39' E 012°41'611.1
2018-Feb-13 19:00N 55°45' E 012°41'611.0
2018-Feb-13 18:30N 55°50' E 012°42'4 7.2
2018-Feb-13 18:01N 55°52' E 012°47'1 2.5
2018-Feb-13 17:30N 55°52' E 012°50'0 0.3
2018-Feb-13 17:00N 55°52' E 012°50'0 0.0
2018-Feb-13 16:26N 55°52' E 012°50'0 0.0
2018-Feb-13 15:59N 55°52' E 012°50'0 0.0
2018-Feb-13 15:28N 55°52' E 012°50'0 0.0
2018-Feb-13 14:58N 55°52' E 012°50'0 0.0
2018-Feb-13 14:28N 55°52' E 012°50'0 0.0
2018-Feb-13 13:58N 55°52' E 012°50'0 0.0
2018-Feb-13 13:28N 55°52' E 012°50'0 0.0
2018-Feb-13 13:00N 55°52' E 012°50'0 0.0
2018-Feb-13 12:30N 55°52' E 012°50'0 0.0
2018-Feb-13 12:00N 55°52' E 012°50'0 0.0
2018-Feb-13 11:27N 55°52' E 012°50'0 0.0
2018-Feb-13 10:57N 55°52' E 012°50'0 0.0
2018-Feb-13 10:26N 55°52' E 012°50'0 0.0
2018-Feb-13 09:59N 55°52' E 012°50'0 0.0
2018-Feb-13 09:26N 55°52' E 012°50'0 0.0
2018-Feb-13 08:56N 55°52' E 012°50'0 0.0
2018-Feb-13 08:28N 55°52' E 012°50'0 0.0
2018-Feb-13 07:58N 55°52' E 012°50'0 0.0
2018-Feb-13 07:28N 55°52' E 012°50'0 0.0
2018-Feb-13 06:58N 55°52' E 012°50'0 0.0
2018-Feb-13 06:28N 55°52' E 012°50'0 0.0
2018-Feb-13 06:00N 55°52' E 012°50'0 0.0
2018-Feb-13 05:27N 55°52' E 012°50'0 0.0
2018-Feb-13 05:00N 55°52' E 012°50'0 0.0
2018-Feb-13 04:27N 55°52' E 012°50'0 0.0
2018-Feb-13 04:00N 55°52' E 012°50'0 0.0
2018-Feb-13 03:29N 55°52' E 012°50'0 0.0
2018-Feb-13 02:59N 55°52' E 012°50'0 0.0
2018-Feb-13 02:29N 55°52' E 012°50'0 0.0
2018-Feb-13 01:59N 55°52' E 012°50'0 0.0
2018-Feb-13 01:25N 55°52' E 012°50'0 0.0
2018-Feb-13 00:58N 55°52' E 012°50'0 0.0
2018-Feb-13 00:28N 55°52' E 012°50'0 0.0
2018-Feb-12 23:58N 55°52' E 012°50'0 0.0
2018-Feb-12 23:28N 55°52' E 012°50'0 0.0
2018-Feb-12 23:00N 55°52' E 012°50'0 0.0
2018-Feb-12 22:30N 55°52' E 012°50'0 0.0
2018-Feb-12 21:57N 55°52' E 012°50'0 0.0
2018-Feb-12 21:30N 55°52' E 012°50'0 0.0
2018-Feb-12 21:00N 55°52' E 012°50'0 0.0
2018-Feb-12 20:29N 55°52' E 012°50'0 0.0
2018-Feb-12 19:56N 55°52' E 012°50'0 0.0
2018-Feb-12 19:29N 55°52' E 012°50'0 0.0
2018-Feb-12 18:59N 55°52' E 012°50'0 0.0
2018-Feb-12 18:25N 55°52' E 012°50'0 0.0
2018-Feb-12 17:58N 55°52' E 012°50'0 0.0
2018-Feb-12 17:25N 55°52' E 012°50'0 0.0
2018-Feb-12 16:58N 55°52' E 012°50'0 0.0
2018-Feb-12 16:25N 55°52' E 012°50'0 0.0
2018-Feb-12 15:57N 55°52' E 012°50'0 0.0
2018-Feb-12 15:24N 55°52' E 012°50'0 0.0
2018-Feb-12 15:00N 55°52' E 012°50'0 0.0
2018-Feb-12 14:30N 55°52' E 012°50'0 0.0
2018-Feb-12 13:59N 55°52' E 012°50'0 0.0
2018-Feb-12 13:29N 55°52' E 012°50'0 0.0
2018-Feb-12 12:59N 55°52' E 012°50'0 0.0
2018-Feb-12 12:29N 55°52' E 012°50'0 0.0
2018-Feb-12 11:59N 55°52' E 012°50'0 0.0
2018-Feb-12 11:28N 55°52' E 012°50'0 0.0
2018-Feb-12 10:55N 55°52' E 012°50'0 0.0
2018-Feb-12 10:25N 55°52' E 012°50'0 0.0
2018-Feb-12 09:58N 55°52' E 012°50'0 0.0
2018-Feb-12 09:25N 55°52' E 012°50'0 0.0
2018-Feb-12 08:54N 55°52' E 012°50'0 0.0
2018-Feb-12 08:30N 55°52' E 012°50'0 0.0
2018-Feb-12 08:00N 55°52' E 012°50'0 0.0
2018-Feb-12 07:30N 55°52' E 012°50'0 0.0
2018-Feb-12 07:00N 55°52' E 012°50'0 0.0
2018-Feb-12 06:29N 55°52' E 012°50'0 0.0
2018-Feb-12 06:00N 55°52' E 012°50'2 3.2
2018-Feb-12 05:31N 55°53' E 012°47'3 5.9
2018-Feb-12 05:00N 55°51' E 012°43'  
Track history (hours):
 
Tides and Currents Weather Stations Pressure Air Temp Water Temp Dewpoint Dewpoint Depression Visibility Wind Speed Wind Dir Waves Ship Positions

Barbarossa

Last reported at 2018-Feb-22 04:39 UTC. Time now 2018-Feb-22 19:20 UTC.
Position N 60°27' E 019°02'.

Length 83 m; draft 3.9 m.

Type: Cargo ship. MMSI: 236029000.

Date/timePositionNaut miles runAvg speedWind from/ knotsBaromVisibWave heightAir tempDewpointWater temp
2018-Feb-22 04:39N 60°27' E 019°02'211.0
2018-Feb-22 04:29N 60°25' E 019°02'511.1
2018-Feb-22 04:01N 60°20' E 019°01'510.8
2018-Feb-22 03:31N 60°15' E 019°03'510.7
2018-Feb-22 03:01N 60°10' E 019°08'510.8
2018-Feb-22 02:30N 60°06' E 019°15'510.9
2018-Feb-22 02:00N 60°02' E 019°22'510.9
2018-Feb-22 01:30N 59°57' E 019°29'510.8
2018-Feb-22 01:00N 59°53' E 019°36'610.7
2018-Feb-22 00:29N 59°49' E 019°43'4410.6
2018-Feb-21 20:20N 59°35' E 021°06'410.9
2018-Feb-21 20:00N 59°34' E 021°13'511.0
2018-Feb-21 19:30N 59°34' E 021°24'611.1
2018-Feb-21 19:01N 59°33' E 021°35'611.0
2018-Feb-21 18:31N 59°33' E 021°45'4410.9
2018-Feb-21 14:28N 59°38' E 023°12'510.5
2018-Feb-21 14:00N 59°39' E 023°21'510.7
2018-Feb-21 13:30N 59°40' E 023°32'510.4
2018-Feb-21 13:00N 59°42' E 023°41'510.3
2018-Feb-21 12:30N 59°43' E 023°51'5 9.9
2018-Feb-21 12:00N 59°44' E 024°01'9 9.5
2018-Feb-21 11:04N 59°47' E 024°18'110.0
2018-Feb-21 11:00N 59°47' E 024°19'4 7.2
2018-Feb-21 10:30N 59°47' E 024°26'5 9.3
2018-Feb-21 10:00N 59°49' E 024°35'5 9.9
2018-Feb-21 09:30N 59°50' E 024°45'4 8.6
2018-Feb-21 09:01N 59°51' E 024°53'610.5
2018-Feb-21 08:28N 59°52' E 025°04'510.0
2018-Feb-21 07:58N 59°53' E 025°14'510.0
2018-Feb-21 07:30N 59°54' E 025°23'510.1
2018-Feb-21 07:00N 59°54' E 025°33'23 9.4
2018-Feb-21 04:34N 60°06' E 026°12'110.5
2018-Feb-21 04:30N 60°07' E 026°13'510.4
2018-Feb-21 04:00N 60°10' E 026°20'4 8.6
2018-Feb-21 03:30N 60°14' E 026°25'4 8.3
2018-Feb-21 03:00N 60°17' E 026°31'510.4
2018-Feb-21 02:31N 60°21' E 026°38'3 5.1
2018-Feb-21 02:00N 60°22' E 026°42'3 5.5
2018-Feb-21 01:31N 60°23' E 026°48'4 7.7
2018-Feb-21 01:00N 60°22' E 026°55'4 8.2
2018-Feb-21 00:30N 60°21' E 027°03'3 6.0
2018-Feb-21 00:00N 60°22' E 027°09'3 7.0
2018-Feb-20 23:31N 60°26' E 027°08'3 6.7
2018-Feb-20 23:00N 60°29' E 027°08'3 6.8
2018-Feb-20 22:30N 60°32' E 027°11'0 0.0
2018-Feb-19 13:57N 60°32' E 027°10'2 4.4
2018-Feb-19 13:29N 60°30' E 027°09'3 7.3
2018-Feb-19 13:00N 60°27' E 027°09'4 7.4
2018-Feb-19 12:30N 60°23' E 027°09'3 6.5
2018-Feb-19 12:00N 60°21' E 027°05'4 8.8
2018-Feb-19 11:30N 60°22' E 026°56'4 7.7
2018-Feb-19 11:00N 60°22' E 026°49'4 7.2
2018-Feb-19 10:30N 60°22' E 026°42'4 8.2
2018-Feb-19 10:00N 60°19' E 026°36'5 9.7
2018-Feb-19 09:30N 60°16' E 026°28'5 9.3
2018-Feb-19 09:00N 60°12' E 026°23'5 9.4
2018-Feb-19 08:31N 60°08' E 026°18'23 9.2
2018-Feb-19 05:59N 59°52' E 025°43'7 9.2
2018-Feb-19 05:11N 59°51' E 025°29'2 9.4
2018-Feb-19 04:58N 59°51' E 025°25'7 9.5
2018-Feb-19 04:13N 59°49' E 025°11'3 9.2
2018-Feb-19 03:55N 59°49' E 025°06'4 9.4
2018-Feb-19 03:30N 59°48' E 024°58'5 9.3
2018-Feb-19 03:00N 59°47' E 024°49'5 9.3
2018-Feb-19 02:30N 59°46' E 024°40'5 9.6
2018-Feb-19 02:00N 59°45' E 024°31'5 9.6
2018-Feb-19 01:30N 59°44' E 024°21'6 9.3
2018-Feb-19 00:49N 59°42' E 024°09'4 9.3
2018-Feb-19 00:26N 59°41' E 024°02'4 9.0
2018-Feb-19 00:00N 59°40' E 023°55'5 9.5
2018-Feb-18 23:30N 59°38' E 023°46'5 9.7
2018-Feb-18 23:00N 59°37' E 023°37'5 9.6
2018-Feb-18 22:30N 59°35' E 023°28'5 9.7
2018-Feb-18 22:00N 59°34' E 023°19'6 9.5
2018-Feb-18 21:25N 59°32' E 023°09'303 9.8
2018-Feb-17 14:36N 54°51' E 019°40'210.3
2018-Feb-17 14:25N 54°49' E 019°41'410.4
2018-Feb-17 14:00N 54°45' E 019°43'  
2018-Feb-14 19:23N 54°47' E 019°25'411.1
2018-Feb-14 18:59N 54°49' E 019°18'511.2
2018-Feb-14 18:30N 54°51' E 019°09'611.1
2018-Feb-14 18:00N 54°53' E 019°00'611.3
2018-Feb-14 17:30N 54°55' E 018°51'611.2
2018-Feb-14 17:00N 54°58' E 018°42'611.3
2018-Feb-14 16:30N 54°60' E 018°33'611.2
2018-Feb-14 15:59N 55°02' E 018°23'711.1
2018-Feb-14 15:21N 55°03' E 018°12'9411.1
2018-Feb-14 06:52N 55°22' E 015°30'411.0
2018-Feb-14 06:30N 55°22' E 015°23'511.1
2018-Feb-14 06:00N 55°23' E 015°14'511.0
2018-Feb-14 05:30N 55°24' E 015°04'611.1
2018-Feb-14 05:00N 55°23' E 014°54'611.0
2018-Feb-14 04:30N 55°23' E 014°45'510.2
2018-Feb-14 04:00N 55°20' E 014°37'511.1
2018-Feb-14 03:30N 55°17' E 014°30'611.1
2018-Feb-14 03:00N 55°12' E 014°24'510.2
2018-Feb-14 02:29N 55°09' E 014°16'1511.4
2018-Feb-14 01:08N 55°11' E 013°49'1711.2
2018-Feb-13 23:40N 55°13' E 013°20'311.0
2018-Feb-13 23:26N 55°13' E 013°16'511.1
2018-Feb-13 23:00N 55°14' E 013°08'611.2
2018-Feb-13 22:30N 55°14' E 012°58'611.2
2018-Feb-13 22:00N 55°16' E 012°48'611.2
2018-Feb-13 21:30N 55°18' E 012°39'510.5
2018-Feb-13 21:00N 55°23' E 012°40'511.0
2018-Feb-13 20:30N 55°28' E 012°41'611.1
2018-Feb-13 20:00N 55°34' E 012°42'611.1
2018-Feb-13 19:30N 55°39' E 012°41'611.1
2018-Feb-13 19:00N 55°45' E 012°41'611.0
2018-Feb-13 18:30N 55°50' E 012°42'4 7.2
2018-Feb-13 18:01N 55°52' E 012°47'1 2.5
2018-Feb-13 17:30N 55°52' E 012°50'0 0.3
2018-Feb-13 17:00N 55°52' E 012°50'0 0.0
2018-Feb-13 16:26N 55°52' E 012°50'0 0.0
2018-Feb-13 15:59N 55°52' E 012°50'0 0.0
2018-Feb-13 15:28N 55°52' E 012°50'0 0.0
2018-Feb-13 14:58N 55°52' E 012°50'0 0.0
2018-Feb-13 14:28N 55°52' E 012°50'0 0.0
2018-Feb-13 13:58N 55°52' E 012°50'0 0.0
2018-Feb-13 13:28N 55°52' E 012°50'0 0.0
2018-Feb-13 13:00N 55°52' E 012°50'0 0.0
2018-Feb-13 12:30N 55°52' E 012°50'0 0.0
2018-Feb-13 12:00N 55°52' E 012°50'0 0.0
2018-Feb-13 11:27N 55°52' E 012°50'0 0.0
2018-Feb-13 10:57N 55°52' E 012°50'0 0.0
2018-Feb-13 10:26N 55°52' E 012°50'0 0.0
2018-Feb-13 09:59N 55°52' E 012°50'0 0.0
2018-Feb-13 09:26N 55°52' E 012°50'0 0.0
2018-Feb-13 08:56N 55°52' E 012°50'0 0.0
2018-Feb-13 08:28N 55°52' E 012°50'0 0.0
2018-Feb-13 07:58N 55°52' E 012°50'0 0.0
2018-Feb-13 07:28N 55°52' E 012°50'0 0.0
2018-Feb-13 06:58N 55°52' E 012°50'0 0.0
2018-Feb-13 06:28N 55°52' E 012°50'0 0.0
2018-Feb-13 06:00N 55°52' E 012°50'0 0.0
2018-Feb-13 05:27N 55°52' E 012°50'0 0.0
2018-Feb-13 05:00N 55°52' E 012°50'0 0.0
2018-Feb-13 04:27N 55°52' E 012°50'0 0.0
2018-Feb-13 04:00N 55°52' E 012°50'0 0.0
2018-Feb-13 03:29N 55°52' E 012°50'0 0.0
2018-Feb-13 02:59N 55°52' E 012°50'0 0.0
2018-Feb-13 02:29N 55°52' E 012°50'0 0.0
2018-Feb-13 01:59N 55°52' E 012°50'0 0.0
2018-Feb-13 01:25N 55°52' E 012°50'0 0.0
2018-Feb-13 00:58N 55°52' E 012°50'0 0.0
2018-Feb-13 00:28N 55°52' E 012°50'0 0.0
2018-Feb-12 23:58N 55°52' E 012°50'0 0.0
2018-Feb-12 23:28N 55°52' E 012°50'0 0.0
2018-Feb-12 23:00N 55°52' E 012°50'0 0.0
2018-Feb-12 22:30N 55°52' E 012°50'0 0.0
2018-Feb-12 21:57N 55°52' E 012°50'0 0.0
2018-Feb-12 21:30N 55°52' E 012°50'0 0.0
2018-Feb-12 21:00N 55°52' E 012°50'0 0.0
2018-Feb-12 20:29N 55°52' E 012°50'0 0.0
2018-Feb-12 19:56N 55°52' E 012°50'0 0.0
2018-Feb-12 19:29N 55°52' E 012°50'0 0.0
2018-Feb-12 18:59N 55°52' E 012°50'0 0.0
2018-Feb-12 18:25N 55°52' E 012°50'0 0.0
2018-Feb-12 17:58N 55°52' E 012°50'0 0.0
2018-Feb-12 17:25N 55°52' E 012°50'0 0.0
2018-Feb-12 16:58N 55°52' E 012°50'0 0.0
2018-Feb-12 16:25N 55°52' E 012°50'0 0.0
2018-Feb-12 15:57N 55°52' E 012°50'0 0.0
2018-Feb-12 15:24N 55°52' E 012°50'0 0.0
2018-Feb-12 15:00N 55°52' E 012°50'0 0.0
2018-Feb-12 14:30N 55°52' E 012°50'0 0.0
2018-Feb-12 13:59N 55°52' E 012°50'0 0.0
2018-Feb-12 13:29N 55°52' E 012°50'0 0.0
2018-Feb-12 12:59N 55°52' E 012°50'0 0.0
2018-Feb-12 12:29N 55°52' E 012°50'0 0.0
2018-Feb-12 11:59N 55°52' E 012°50'0 0.0
2018-Feb-12 11:28N 55°52' E 012°50'0 0.0
2018-Feb-12 10:55N 55°52' E 012°50'0 0.0
2018-Feb-12 10:25N 55°52' E 012°50'0 0.0
2018-Feb-12 09:58N 55°52' E 012°50'0 0.0
2018-Feb-12 09:25N 55°52' E 012°50'0 0.0
2018-Feb-12 08:54N 55°52' E 012°50'0 0.0
2018-Feb-12 08:30N 55°52' E 012°50'0 0.0
2018-Feb-12 08:00N 55°52' E 012°50'0 0.0
2018-Feb-12 07:30N 55°52' E 012°50'0 0.0
2018-Feb-12 07:00N 55°52' E 012°50'0 0.0
2018-Feb-12 06:29N 55°52' E 012°50'0 0.0
2018-Feb-12 06:00N 55°52' E 012°50'2 3.2
2018-Feb-12 05:31N 55°53' E 012°47'3 5.9
2018-Feb-12 05:00N 55°51' E 012°43'  

Dump ship's entire track history